createdAt,value
2022-08-26T00:00:57.642Z,4.35
2022-08-26T00:03:23.588Z,4.55
2022-08-26T00:05:50.380Z,3.92
2022-08-26T00:08:19.135Z,4.28
2022-08-26T00:10:45.347Z,4.03
2022-08-26T00:13:11.387Z,4.53
2022-08-26T00:15:38.013Z,4.47
2022-08-26T00:18:04.486Z,4.03
2022-08-26T00:20:42.816Z,4.38
2022-08-26T00:23:09.007Z,4.43
2022-08-26T00:25:35.625Z,4.30
2022-08-26T00:28:09.130Z,4.55
2022-08-26T00:30:37.143Z,4.20
2022-08-26T00:33:05.288Z,4.63
2022-08-26T00:35:32.261Z,4.63
2022-08-26T00:38:00.873Z,4.53
2022-08-26T00:40:34.721Z,5.00
2022-08-26T00:43:02.349Z,4.57
2022-08-26T00:46:04.126Z,5.20
2022-08-26T00:48:34.960Z,4.90
2022-08-26T00:51:11.101Z,5.20
2022-08-26T00:53:44.970Z,4.90
2022-08-26T00:57:00.382Z,4.65
2022-08-26T00:59:28.431Z,4.53
2022-08-26T01:01:56.102Z,5.00
2022-08-26T01:04:23.670Z,5.38
2022-08-26T01:06:53.753Z,5.28
2022-08-26T01:09:21.595Z,5.18
2022-08-26T01:11:49.756Z,5.03
2022-08-26T01:14:16.956Z,5.30
2022-08-26T01:16:45.181Z,4.93
2022-08-26T01:19:26.220Z,5.55
2022-08-26T01:21:58.731Z,4.60
2022-08-26T01:24:26.917Z,5.00
2022-08-26T01:26:59.770Z,5.13
2022-08-26T01:29:27.287Z,4.82
2022-08-26T01:31:55.905Z,5.20
2022-08-26T01:34:36.974Z,5.13
2022-08-26T01:37:16.095Z,5.07
2022-08-26T01:39:44.066Z,5.95
2022-08-26T01:42:13.865Z,5.78
2022-08-26T01:44:44.334Z,5.10
2022-08-26T01:47:12.861Z,4.97
2022-08-26T01:49:40.333Z,5.53
2022-08-26T01:52:09.395Z,5.50
2022-08-26T01:54:36.877Z,5.22
2022-08-26T01:57:04.651Z,5.53
2022-08-26T01:59:30.795Z,5.70
2022-08-26T02:01:57.220Z,5.10
2022-08-26T02:04:32.375Z,5.40
2022-08-26T02:09:27.640Z,5.90
2022-08-26T02:11:53.985Z,5.15
2022-08-26T02:14:28.523Z,5.57
2022-08-26T02:16:55.424Z,5.25
2022-08-26T02:19:28.573Z,5.70
2022-08-26T02:21:57.242Z,4.90
2022-08-26T02:24:27.541Z,5.13
2022-08-26T02:26:55.106Z,4.43
2022-08-26T02:29:43.886Z,5.38
2022-08-26T02:32:10.450Z,5.20
2022-08-26T02:34:37.279Z,5.38
2022-08-26T02:37:07.567Z,5.45
2022-08-26T02:39:36.256Z,5.63
2022-08-26T02:42:04.518Z,4.80
2022-08-26T02:44:31.126Z,5.60
2022-08-26T02:46:59.762Z,5.20
2022-08-26T02:49:27.565Z,5.40
2022-08-26T02:51:53.581Z,6.18
2022-08-26T02:54:23.278Z,5.15
2022-08-26T02:56:50.586Z,6.38
2022-08-26T02:59:17.240Z,5.43
2022-08-26T03:01:44.445Z,5.38
2022-08-26T03:04:12.149Z,5.07
2022-08-26T03:06:38.686Z,4.75
2022-08-26T03:09:06.912Z,5.03
2022-08-26T03:11:33.731Z,5.22
2022-08-26T03:14:00.320Z,5.32
2022-08-26T03:16:32.252Z,4.65
2022-08-26T03:18:59.254Z,4.57
2022-08-26T03:21:25.179Z,4.72
2022-08-26T03:23:51.005Z,4.30
2022-08-26T03:26:16.853Z,5.28
2022-08-26T03:29:00.950Z,4.72
2022-08-26T03:31:28.771Z,4.47
2022-08-26T03:33:59.129Z,4.32
2022-08-26T03:36:26.039Z,4.90
2022-08-26T03:38:51.850Z,5.50
2022-08-26T03:41:17.721Z,5.15
2022-08-26T03:43:44.250Z,5.03
2022-08-26T03:46:11.593Z,5.47
2022-08-26T03:48:38.931Z,5.95
2022-08-26T03:51:11.815Z,5.00
2022-08-26T03:53:37.640Z,5.57
2022-08-26T03:56:05.831Z,5.78
2022-08-26T03:58:32.415Z,5.60
2022-08-26T04:00:58.596Z,6.90
2022-08-26T04:03:52.454Z,10.68
2022-08-26T04:06:18.349Z,11.82
2022-08-26T04:08:44.464Z,14.10
2022-08-26T04:11:17.614Z,14.20
2022-08-26T04:13:43.509Z,13.43
2022-08-26T04:16:09.285Z,12.85
2022-08-26T04:18:37.524Z,11.32
2022-08-26T04:21:12.349Z,12.95
2022-08-26T04:23:47.625Z,12.45
2022-08-26T04:26:14.520Z,14.35
2022-08-26T04:28:40.318Z,14.75
2022-08-26T04:31:10.414Z,12.80
2022-08-26T04:33:36.285Z,14.30
2022-08-26T04:36:08.484Z,14.23
2022-08-26T04:38:34.558Z,16.00
2022-08-26T04:41:00.763Z,13.55
2022-08-26T04:43:29.906Z,16.92
2022-08-26T04:45:59.167Z,18.33
2022-08-26T04:48:26.741Z,18.23
2022-08-26T04:50:52.715Z,17.33
2022-08-26T04:53:18.904Z,20.02
2022-08-26T04:55:45.157Z,20.00
2022-08-26T04:58:14.286Z,23.38
2022-08-26T05:00:40.146Z,23.35
2022-08-26T05:03:07.590Z,23.70
2022-08-26T05:05:41.672Z,25.05
2022-08-26T05:08:12.162Z,25.92
2022-08-26T05:10:43.594Z,27.48
2022-08-26T05:13:11.238Z,26.08
2022-08-26T05:15:38.556Z,29.05
2022-08-26T05:18:06.327Z,27.50
2022-08-26T05:20:42.674Z,29.00
2022-08-26T05:23:08.669Z,30.20
2022-08-26T05:25:39.788Z,32.25
2022-08-26T05:28:05.994Z,31.90
2022-08-26T05:30:31.966Z,32.42
2022-08-26T05:32:58.441Z,31.20
2022-08-26T05:35:28.332Z,31.25
2022-08-26T05:37:58.395Z,30.85
2022-08-26T05:40:24.912Z,30.08
2022-08-26T05:42:52.244Z,36.50
2022-08-26T05:45:19.530Z,34.45
2022-08-26T05:47:45.653Z,30.38
2022-08-26T05:50:12.797Z,32.47
2022-08-26T05:52:38.646Z,31.88
2022-08-26T05:55:05.041Z,30.83
2022-08-26T05:57:32.218Z,29.17
2022-08-26T05:59:58.106Z,30.85
2022-08-26T06:02:23.970Z,29.95
2022-08-26T06:04:50.061Z,29.85
2022-08-26T06:07:37.658Z,28.17
2022-08-26T06:10:30.927Z,29.38
2022-08-26T06:12:52.120Z,30.50
2022-08-26T06:15:17.975Z,32.35
2022-08-26T06:17:45.205Z,35.03
2022-08-26T06:20:11.510Z,34.85
2022-08-26T06:22:56.373Z,34.95
2022-08-26T06:25:37.295Z,34.40
2022-08-26T06:28:04.518Z,33.33
2022-08-26T06:30:31.941Z,35.50
2022-08-26T06:33:00.230Z,40.03
2022-08-26T06:35:26.283Z,39.85
2022-08-26T06:37:52.081Z,39.20
2022-08-26T06:40:18.126Z,40.67
2022-08-26T06:42:45.100Z,40.25
2022-08-26T06:45:11.213Z,40.10
2022-08-26T06:47:37.329Z,44.65
2022-08-26T06:50:03.257Z,48.13
2022-08-26T06:52:29.064Z,48.50
2022-08-26T06:54:55.099Z,47.42
2022-08-26T06:57:20.976Z,50.95
2022-08-26T06:59:47.418Z,55.03
2022-08-26T07:02:17.038Z,54.33
2022-08-26T07:04:43.714Z,52.85
2022-08-26T07:07:14.615Z,53.05
2022-08-26T07:09:40.479Z,55.97
2022-08-26T07:12:06.797Z,57.25
2022-08-26T07:14:34.410Z,48.38
2022-08-26T07:17:01.149Z,54.47
2022-08-26T07:19:30.545Z,52.38
2022-08-26T07:21:58.628Z,53.72
2022-08-26T07:24:24.470Z,55.22
2022-08-26T07:26:58.487Z,53.90
2022-08-26T07:29:24.709Z,54.53
2022-08-26T07:31:51.469Z,56.03
2022-08-26T07:34:17.334Z,61.20
2022-08-26T07:36:43.849Z,60.22
2022-08-26T07:39:09.620Z,62.33
2022-08-26T07:41:35.855Z,58.05
2022-08-26T07:44:02.186Z,61.53
2022-08-26T07:46:30.559Z,55.65
2022-08-26T07:48:57.633Z,56.47
2022-08-26T07:51:24.126Z,57.67
2022-08-26T07:53:52.465Z,59.20
2022-08-26T07:56:19.653Z,57.75
2022-08-26T07:58:50.491Z,52.60
2022-08-26T08:01:22.997Z,54.47
2022-08-26T08:03:52.544Z,59.45
2022-08-26T08:06:27.235Z,57.88
2022-08-26T08:08:55.035Z,59.88
2022-08-26T08:11:21.244Z,55.50
2022-08-26T08:13:47.883Z,57.83
2022-08-26T08:16:14.919Z,60.47
2022-08-26T08:18:40.817Z,59.80
2022-08-26T08:21:22.156Z,59.22
2022-08-26T08:23:55.118Z,55.70
2022-08-26T08:26:23.190Z,57.35
2022-08-26T08:28:49.285Z,55.60
2022-08-26T08:31:38.983Z,53.15
2022-08-26T08:34:09.351Z,53.58
2022-08-26T08:36:35.889Z,54.53
2022-08-26T08:39:02.390Z,52.60
2022-08-26T08:41:40.835Z,51.45
2022-08-26T08:44:15.221Z,46.85
2022-08-26T08:46:42.190Z,50.50
2022-08-26T08:49:10.345Z,52.83
2022-08-26T08:51:51.440Z,54.90
2022-08-26T08:54:18.900Z,53.42
2022-08-26T08:57:00.994Z,52.60
2022-08-26T08:59:32.808Z,48.05
2022-08-26T09:02:08.862Z,49.67
2022-08-26T09:04:51.192Z,52.92
2022-08-26T09:07:50.184Z,53.00
2022-08-26T09:10:22.584Z,50.15
2022-08-26T09:12:50.003Z,56.53
2022-08-26T09:15:21.752Z,50.38
2022-08-26T09:18:11.688Z,49.78
2022-08-26T09:20:48.783Z,54.35
2022-08-26T09:23:15.735Z,55.00
2022-08-26T09:26:20.042Z,55.50
2022-08-26T09:29:01.459Z,53.55
2022-08-26T09:31:35.545Z,48.78
2022-08-26T09:34:17.313Z,53.17
2022-08-26T09:36:52.802Z,50.42
2022-08-26T09:42:08.275Z,54.25
2022-08-26T09:45:03.283Z,54.05
2022-08-26T09:47:37.805Z,47.97
2022-08-26T09:50:13.695Z,46.47
2022-08-26T09:52:40.536Z,49.45
2022-08-26T09:55:23.023Z,46.35
2022-08-26T09:57:54.414Z,44.83
2022-08-26T10:00:38.603Z,40.97
2022-08-26T10:03:23.342Z,39.15
2022-08-26T10:06:03.538Z,42.05
2022-08-26T10:08:44.086Z,39.97
2022-08-26T10:11:28.303Z,37.40
2022-08-26T10:13:59.980Z,37.88
2022-08-26T10:16:44.714Z,34.08
2022-08-26T10:19:16.154Z,31.08
2022-08-26T10:21:52.261Z,31.35
2022-08-26T10:24:30.294Z,31.33
2022-08-26T10:27:01.757Z,28.17
2022-08-26T10:29:50.090Z,26.70
2022-08-26T10:32:41.347Z,23.67
2022-08-26T10:35:11.724Z,27.90
2022-08-26T10:38:08.457Z,26.00
2022-08-26T10:41:00.835Z,25.40
2022-08-26T10:43:35.204Z,27.08
2022-08-26T10:46:13.686Z,24.92
2022-08-26T10:48:48.473Z,25.30
2022-08-26T10:54:10.264Z,22.52
2022-08-26T10:56:54.870Z,23.00
2022-08-26T10:59:39.112Z,22.80
2022-08-26T11:02:25.273Z,23.20
2022-08-26T11:05:02.669Z,22.13
2022-08-26T11:07:46.288Z,22.13
2022-08-26T11:10:21.804Z,23.13
2022-08-26T11:12:51.346Z,22.55
2022-08-26T11:15:19.297Z,19.40
2022-08-26T11:17:50.544Z,18.67
2022-08-26T11:20:41.846Z,19.80
2022-08-26T11:23:30.983Z,17.75
2022-08-26T11:26:08.725Z,19.08
2022-08-26T11:28:40.339Z,19.77
2022-08-26T11:31:25.831Z,19.85
2022-08-26T11:33:56.617Z,20.25
2022-08-26T11:36:28.678Z,17.52
2022-08-26T11:38:54.503Z,20.75
2022-08-26T11:41:23.624Z,20.20
2022-08-26T11:43:51.473Z,19.75
2022-08-26T11:46:26.103Z,20.65
2022-08-26T11:49:04.530Z,20.95
2022-08-26T11:51:31.287Z,19.90
2022-08-26T11:54:15.881Z,19.85
2022-08-26T11:56:43.830Z,20.40
2022-08-26T11:59:14.777Z,18.98
2022-08-26T12:01:48.314Z,18.17
2022-08-26T12:04:27.927Z,21.27
2022-08-26T12:06:54.995Z,19.23
2022-08-26T12:09:24.267Z,17.85
2022-08-26T12:11:50.154Z,20.05
2022-08-26T12:14:20.011Z,17.00
2022-08-26T12:16:46.606Z,17.65
2022-08-26T12:19:29.294Z,17.52
2022-08-26T12:22:04.240Z,17.80
2022-08-26T12:24:30.441Z,16.33
2022-08-26T12:27:15.033Z,17.13
2022-08-26T12:29:41.096Z,17.35
2022-08-26T12:32:17.510Z,18.38
2022-08-26T12:34:46.482Z,17.55
2022-08-26T12:37:13.453Z,20.30
2022-08-26T12:39:43.639Z,19.40
2022-08-26T12:42:12.237Z,20.05
2022-08-26T12:44:53.965Z,22.55
2022-08-26T12:47:42.052Z,22.38
2022-08-26T12:50:12.204Z,20.25
2022-08-26T12:53:08.928Z,21.05
2022-08-26T12:55:55.966Z,21.02
2022-08-26T12:58:34.000Z,20.88
2022-08-26T13:01:05.975Z,20.60
2022-08-26T13:03:36.284Z,19.92
2022-08-26T13:06:23.225Z,18.55
2022-08-26T13:08:59.140Z,19.35
2022-08-26T13:11:28.364Z,18.42
2022-08-26T13:14:00.625Z,17.13
2022-08-26T13:16:28.571Z,17.92
2022-08-26T13:18:57.346Z,17.20
2022-08-26T13:21:26.708Z,18.17
2022-08-26T13:23:53.314Z,17.00
2022-08-26T13:26:19.971Z,17.35
2022-08-26T13:28:53.276Z,17.73
2022-08-26T13:31:30.208Z,17.42
2022-08-26T13:33:56.688Z,16.48
2022-08-26T13:36:22.749Z,18.90
2022-08-26T13:38:48.641Z,19.45
2022-08-26T13:41:18.501Z,21.85
2022-08-26T13:43:54.878Z,24.13
2022-08-26T13:46:20.755Z,22.52
2022-08-26T13:48:46.709Z,23.73
2022-08-26T13:51:12.728Z,21.92
2022-08-26T13:53:38.525Z,24.30
2022-08-26T13:56:10.856Z,23.55
2022-08-26T13:58:36.987Z,21.42
2022-08-26T14:01:02.951Z,22.02
2022-08-26T14:03:28.851Z,20.67
2022-08-26T14:05:55.173Z,19.33
2022-08-26T14:08:21.585Z,22.70
2022-08-26T14:13:15.022Z,19.35
2022-08-26T14:15:41.203Z,18.88
2022-08-26T14:18:09.303Z,17.77
2022-08-26T14:20:36.628Z,18.55
2022-08-26T14:23:13.643Z,16.85
2022-08-26T14:25:40.263Z,15.40
2022-08-26T14:28:06.072Z,14.93
2022-08-26T14:30:32.003Z,14.30
2022-08-26T14:33:01.193Z,13.88
2022-08-26T14:35:30.048Z,14.32
2022-08-26T14:37:56.642Z,13.18
2022-08-26T14:40:26.434Z,13.00
2022-08-26T14:42:54.031Z,11.60
2022-08-26T14:45:23.547Z,12.45
2022-08-26T14:47:51.603Z,12.75
2022-08-26T14:50:24.278Z,11.65
2022-08-26T14:53:09.644Z,13.73
2022-08-26T14:58:03.840Z,12.20
2022-08-26T15:00:30.265Z,12.30
2022-08-26T15:02:57.591Z,11.98
2022-08-26T15:05:24.367Z,11.38
2022-08-26T15:07:50.177Z,10.38
2022-08-26T15:10:17.247Z,10.55
2022-08-26T15:12:44.066Z,14.02
2022-08-26T15:15:12.211Z,14.05
2022-08-26T15:17:39.406Z,13.75
2022-08-26T15:20:09.642Z,11.63
2022-08-26T15:22:37.397Z,11.25
2022-08-26T15:25:04.884Z,12.18
2022-08-26T15:27:31.462Z,10.55
2022-08-26T15:29:57.634Z,10.50
2022-08-26T15:32:23.574Z,11.25
2022-08-26T15:34:49.999Z,10.95
2022-08-26T15:37:16.233Z,9.85
2022-08-26T15:39:42.475Z,9.70
2022-08-26T15:42:08.308Z,10.02
2022-08-26T15:44:35.870Z,10.93
2022-08-26T15:47:01.920Z,8.68
2022-08-26T15:49:27.893Z,9.02
2022-08-26T15:51:54.264Z,8.77
2022-08-26T15:54:22.433Z,8.48
2022-08-26T15:56:50.952Z,9.38
2022-08-26T15:59:18.036Z,9.80
2022-08-26T16:01:44.970Z,8.88
2022-08-26T16:04:11.686Z,9.88
2022-08-26T16:06:39.693Z,9.55
2022-08-26T16:09:06.894Z,8.68
2022-08-26T16:11:35.223Z,8.13
2022-08-26T16:14:01.719Z,7.93
2022-08-26T16:16:27.689Z,7.95
2022-08-26T16:18:54.001Z,7.38
2022-08-26T16:21:23.691Z,7.53
2022-08-26T16:23:50.216Z,7.13
2022-08-26T16:26:19.762Z,7.32
2022-08-26T16:28:46.629Z,7.65
2022-08-26T16:31:13.157Z,7.72
2022-08-26T16:33:39.958Z,7.32
2022-08-26T16:36:06.797Z,7.07
2022-08-26T16:38:33.644Z,7.55
2022-08-26T16:41:00.438Z,6.20
2022-08-26T16:43:26.645Z,7.55
2022-08-26T16:45:52.545Z,6.30
2022-08-26T16:48:18.852Z,6.15
2022-08-26T16:50:44.781Z,5.35
2022-08-26T16:55:48.836Z,5.05
2022-08-26T16:58:16.020Z,5.15
2022-08-26T17:00:42.145Z,5.25
2022-08-26T17:03:08.712Z,5.13
2022-08-26T17:05:35.568Z,5.45
2022-08-26T17:08:01.594Z,5.68
2022-08-26T17:10:29.336Z,5.38
2022-08-26T17:12:55.765Z,4.22
2022-08-26T17:15:25.162Z,4.97
2022-08-26T17:17:52.453Z,4.88
2022-08-26T17:20:19.291Z,4.55
2022-08-26T17:22:47.061Z,5.22
2022-08-26T17:25:23.429Z,4.50
2022-08-26T17:27:49.557Z,5.53
2022-08-26T17:30:16.907Z,4.60
2022-08-26T17:32:43.421Z,4.10
2022-08-26T17:35:11.547Z,4.35
2022-08-26T17:37:39.948Z,4.88
2022-08-26T17:40:09.019Z,5.18
2022-08-26T17:42:37.420Z,4.32
2022-08-26T17:45:03.633Z,4.63
2022-08-26T17:47:29.413Z,5.05
2022-08-26T17:49:55.401Z,4.40
2022-08-26T17:52:21.338Z,5.10
2022-08-26T17:54:47.206Z,4.40
2022-08-26T17:57:13.091Z,5.10
2022-08-26T17:59:38.986Z,4.75
2022-08-26T18:02:06.903Z,4.65
2022-08-26T18:04:32.796Z,4.75
2022-08-26T18:06:58.758Z,5.00
2022-08-26T18:09:24.689Z,5.63
2022-08-26T18:11:50.547Z,5.15
2022-08-26T18:14:16.401Z,4.95
2022-08-26T18:16:42.293Z,4.70
2022-08-26T18:19:08.242Z,4.13
2022-08-26T18:21:35.497Z,4.32
2022-08-26T18:24:01.864Z,5.35
2022-08-26T18:26:32.510Z,5.10
2022-08-26T18:28:59.555Z,4.32
2022-08-26T18:31:26.147Z,5.57
2022-08-26T18:33:52.551Z,4.90
2022-08-26T18:36:21.396Z,4.88
2022-08-26T18:38:50.473Z,5.70
2022-08-26T18:41:19.855Z,4.60
2022-08-26T18:43:46.212Z,5.63
2022-08-26T18:46:12.139Z,5.22
2022-08-26T18:48:39.863Z,5.38
2022-08-26T18:51:06.451Z,5.72
2022-08-26T18:53:33.688Z,6.78
2022-08-26T18:56:00.413Z,6.93
2022-08-26T18:58:26.520Z,7.00
2022-08-26T19:00:54.105Z,7.53
2022-08-26T19:03:19.922Z,7.65
2022-08-26T19:05:45.801Z,7.25
2022-08-26T19:08:11.718Z,6.75
2022-08-26T19:10:38.737Z,6.47
2022-08-26T19:13:06.639Z,6.55
2022-08-26T19:15:40.773Z,7.15
2022-08-26T19:18:07.842Z,6.80
2022-08-26T19:20:36.850Z,7.18
2022-08-26T19:23:10.554Z,6.30
2022-08-26T19:25:50.825Z,8.60
2022-08-26T19:28:20.371Z,7.40
2022-08-26T19:30:52.533Z,7.53
2022-08-26T19:33:19.236Z,6.68
2022-08-26T19:35:45.462Z,6.82
2022-08-26T19:38:11.365Z,7.10
2022-08-26T19:40:38.436Z,6.28
2022-08-26T19:43:05.144Z,7.43
2022-08-26T19:45:31.817Z,7.68
2022-08-26T19:47:58.054Z,7.25
2022-08-26T19:50:26.907Z,5.70
2022-08-26T19:52:53.390Z,6.65
2022-08-26T19:55:21.723Z,7.65
2022-08-26T19:57:49.447Z,6.60
2022-08-26T20:00:17.666Z,6.32
2022-08-26T20:02:43.942Z,6.20
2022-08-26T20:05:11.847Z,6.43
2022-08-26T20:07:38.516Z,5.90
2022-08-26T20:10:06.966Z,5.93
2022-08-26T20:12:34.859Z,5.97
2022-08-26T20:15:04.353Z,6.13
2022-08-26T20:17:31.302Z,5.80
2022-08-26T20:20:28.493Z,5.55
2022-08-26T20:23:00.943Z,6.15
2022-08-26T20:25:26.794Z,5.82
2022-08-26T20:27:52.625Z,5.82
2022-08-26T20:30:18.570Z,4.97
2022-08-26T20:32:44.428Z,5.70
2022-08-26T20:35:13.114Z,6.15
2022-08-26T20:37:40.426Z,6.00
2022-08-26T20:40:08.580Z,5.70
2022-08-26T20:42:35.201Z,4.93
2022-08-26T20:45:01.957Z,4.88
2022-08-26T20:47:27.984Z,4.80
2022-08-26T20:49:55.193Z,4.30
2022-08-26T20:52:20.996Z,4.03
2022-08-26T20:54:46.887Z,4.70
2022-08-26T20:57:13.830Z,4.68
2022-08-26T20:59:40.002Z,4.30
2022-08-26T21:02:06.863Z,4.40
2022-08-26T21:04:32.736Z,4.15
2022-08-26T21:06:58.657Z,4.32
2022-08-26T21:09:26.655Z,4.45
2022-08-26T21:11:53.060Z,3.90
2022-08-26T21:14:19.849Z,4.32
2022-08-26T21:16:46.399Z,3.72
2022-08-26T21:19:14.531Z,3.90
2022-08-26T21:21:41.074Z,3.95
2022-08-26T21:24:07.638Z,3.70
2022-08-26T21:26:33.583Z,3.42
2022-08-26T21:29:00.382Z,3.17
2022-08-26T21:31:26.410Z,4.00
2022-08-26T21:33:52.470Z,3.97
2022-08-26T21:36:19.139Z,4.72
2022-08-26T21:38:45.392Z,3.67
2022-08-26T21:41:14.681Z,5.43
2022-08-26T21:43:42.005Z,4.68
2022-08-26T21:46:13.683Z,4.88
2022-08-26T21:48:48.826Z,5.00
2022-08-26T21:51:19.336Z,5.03
2022-08-26T21:53:45.794Z,5.95
2022-08-26T21:56:14.412Z,5.63
2022-08-26T21:58:40.526Z,5.00
2022-08-26T22:01:13.269Z,5.47
2022-08-26T22:03:47.679Z,6.70
2022-08-26T22:06:16.686Z,5.82
2022-08-26T22:08:42.880Z,6.45
2022-08-26T22:11:09.640Z,5.55
2022-08-26T22:13:37.939Z,6.82
2022-08-26T22:16:05.322Z,5.65
2022-08-26T22:18:33.540Z,5.63
2022-08-26T22:21:04.639Z,5.35
2022-08-26T22:23:31.106Z,4.63
2022-08-26T22:25:58.084Z,5.05
2022-08-26T22:28:24.170Z,5.07
2022-08-26T22:30:50.154Z,5.35
2022-08-26T22:33:16.732Z,5.35
2022-08-26T22:35:45.779Z,5.07
2022-08-26T22:38:11.957Z,4.65
2022-08-26T22:40:45.862Z,4.82
2022-08-26T22:43:12.341Z,5.55
2022-08-26T22:45:47.098Z,5.07
2022-08-26T22:48:15.782Z,5.18
2022-08-26T22:50:43.537Z,5.38
2022-08-26T22:53:09.669Z,5.43
2022-08-26T22:55:36.780Z,6.18
2022-08-26T22:58:03.098Z,5.95
2022-08-26T23:00:32.122Z,6.53
2022-08-26T23:02:59.839Z,5.88
2022-08-26T23:05:25.769Z,5.80
2022-08-26T23:07:51.762Z,6.47
2022-08-26T23:10:17.639Z,8.05
2022-08-26T23:12:43.437Z,7.63
2022-08-26T23:15:11.638Z,6.85
2022-08-26T23:17:38.357Z,6.47
2022-08-26T23:20:09.256Z,9.00
2022-08-26T23:22:35.997Z,10.07
2022-08-26T23:25:02.611Z,10.25
2022-08-26T23:27:34.856Z,10.35
2022-08-26T23:30:00.877Z,11.75
2022-08-26T23:32:26.759Z,11.50
2022-08-26T23:34:55.091Z,13.23
2022-08-26T23:37:31.362Z,12.00
2022-08-26T23:39:58.111Z,11.80
2022-08-26T23:42:24.029Z,11.82
2022-08-26T23:44:50.026Z,12.32
2022-08-26T23:47:17.524Z,12.25
2022-08-26T23:49:43.490Z,13.60
2022-08-26T23:52:27.993Z,15.27
2022-08-26T23:54:53.983Z,14.75
2022-08-26T23:57:22.714Z,15.45
2022-08-26T23:59:48.950Z,15.05
